Time;durP1;ratioP1;P1;durP2;ratioP2;P2;SDS_P1;SDS_P2;PMS_P1;PMS_P2;Temp;Humidity;BMP_temperature;BMP_pressure;BME280_temperature;BME280_humidity;BME280_pressure;Samples;Min_cycle;Max_cycle;Signal;HPM_P1;HPM_P2
2021/06/19 00:00:48;;;;;;;6.58;5.95;;;;;;;18.47;88.96;94799.72;1623341;87;21095;-56
2021/06/19 00:03:13;;;;;;;8.40;7.05;;;;;;;18.48;88.69;94801.25;1609906;88;20991;-56
2021/06/19 00:05:40;;;;;;;7.15;6.45;;;;;;;18.47;88.63;94802.51;1624889;87;22355;-57
2021/06/19 00:08:09;;;;;;;9.13;5.47;;;;;;;18.45;88.55;94800.11;1623391;88;21078;-57
2021/06/19 00:10:37;;;;;;;14.70;6.55;;;;;;;18.41;88.31;94793.36;1626202;87;21098;-57
2021/06/19 00:13:04;;;;;;;8.85;6.80;;;;;;;18.34;88.34;94788.26;1623265;87;21542;-57
2021/06/19 00:15:31;;;;;;;8.83;6.90;;;;;;;18.30;88.78;94796.05;1612231;87;21263;-56
2021/06/19 00:17:58;;;;;;;12.70;6.72;;;;;;;18.26;88.73;94794.10;1591218;88;21171;-57
2021/06/19 00:20:26;;;;;;;9.43;8.48;;;;;;;18.22;88.80;94793.58;1555556;91;21041;-57
2021/06/19 00:22:52;;;;;;;11.97;8.25;;;;;;;18.19;89.02;94800.75;1628057;87;21044;-57
2021/06/19 00:25:21;;;;;;;13.38;8.93;;;;;;;18.11;89.35;94792.73;1635672;87;21065;-56
2021/06/19 00:27:50;;;;;;;14.83;9.45;;;;;;;18.06;89.74;94796.86;1632604;87;21043;-57
2021/06/19 00:30:18;;;;;;;12.70;8.98;;;;;;;18.03;90.07;94795.81;1628814;87;21773;-57
2021/06/19 00:32:45;;;;;;;10.48;8.03;;;;;;;18.03;90.24;94790.89;1632817;87;21042;-56
2021/06/19 00:35:14;;;;;;;15.35;7.05;;;;;;;18.04;90.31;94788.98;1628210;87;20990;-56
2021/06/19 00:37:41;;;;;;;11.53;6.05;;;;;;;18.07;90.19;94780.28;1630900;87;21073;-57
2021/06/19 00:40:11;;;;;;;8.70;6.80;;;;;;;18.09;90.11;94786.89;1614627;87;21476;-56
2021/06/19 00:42:38;;;;;;;11.93;6.75;;;;;;;18.12;90.01;94775.38;1631430;86;21203;-57
2021/06/19 00:45:08;;;;;;;9.90;5.87;;;;;;;18.12;89.91;94775.38;1628433;87;20967;-56
2021/06/19 00:47:41;;;;;;;9.30;6.22;;;;;;;18.13;89.90;94769.94;1630442;87;20991;-57
2021/06/19 00:50:09;;;;;;;9.33;5.87;;;;;;;18.11;89.52;94771.06;1628582;87;21528;-56
2021/06/19 00:52:35;;;;;;;8.80;6.80;;;;;;;18.06;89.43;94775.97;1632387;87;20986;-56
2021/06/19 00:55:04;;;;;;;8.08;7.05;;;;;;;18.03;89.62;94776.33;1626992;88;21148;-56
2021/06/19 00:57:32;;;;;;;8.83;7.35;;;;;;;18.02;89.58;94774.05;1628791;87;21102;-56
2021/06/19 00:59:59;;;;;;;9.60;7.55;;;;;;;17.99;89.62;94768.08;1634125;87;21107;-56
2021/06/19 01:02:26;;;;;;;12.07;6.30;;;;;;;17.95;89.68;94767.52;1632339;87;21094;-56
2021/06/19 01:04:53;;;;;;;6.85;5.62;;;;;;;17.91;89.53;94775.34;1627632;87;20990;-58
2021/06/19 01:07:21;;;;;;;6.28;5.67;;;;;;;17.82;89.57;94767.18;1627338;88;21138;-58
2021/06/19 01:09:47;;;;;;;9.23;6.47;;;;;;;17.78;89.65;94771.56;1629514;87;21137;-57
2021/06/19 01:12:22;;;;;;;7.35;6.62;;;;;;;17.72;89.77;94773.55;1628856;87;20979;-58
2021/06/19 01:14:45;;;;;;;15.48;11.50;;;;;;;17.72;90.24;94765.81;1627306;88;21044;-58
2021/06/19 01:17:12;;;;;;;10.72;7.47;;;;;;;17.76;90.03;94767.73;1630884;87;21446;-58
2021/06/19 01:19:38;;;;;;;7.30;6.58;;;;;;;17.77;90.09;94769.27;1592896;87;21930;-57
2021/06/19 01:22:05;;;;;;;11.90;6.70;;;;;;;17.76;90.07;94772.69;1627139;87;20983;-57
2021/06/19 01:24:32;;;;;;;8.13;7.08;;;;;;;17.78;90.33;94769.39;1631656;87;20955;-58
2021/06/19 01:27:00;;;;;;;10.72;7.30;;;;;;;17.85;90.27;94771.75;1629591;87;20982;-57
2021/06/19 01:29:27;;;;;;;7.78;6.97;;;;;;;17.87;89.87;94770.63;1631266;87;21097;-58
2021/06/19 01:31:53;;;;;;;9.20;7.35;;;;;;;17.86;89.59;94763.54;1631087;87;21132;-56
2021/06/19 01:34:21;;;;;;;10.43;7.83;;;;;;;17.87;89.39;94765.06;1577851;89;21212;-56
2021/06/19 01:36:48;;;;;;;12.37;8.58;;;;;;;17.91;89.37;94762.81;1583145;90;21133;-56
2021/06/19 01:39:16;;;;;;;15.00;9.88;;;;;;;17.97;89.01;94766.42;1598216;88;21107;-56
2021/06/19 01:41:43;;;;;;;14.78;7.60;;;;;;;17.96;88.52;94780.18;1599840;89;21778;-57
2021/06/19 01:44:11;;;;;;;11.30;7.35;;;;;;;17.91;88.28;94781.69;1628615;86;21097;-56
2021/06/19 01:46:40;;;;;;;19.37;10.48;;;;;;;17.86;88.30;94783.02;1628807;87;21451;-57
2021/06/19 01:49:08;;;;;;;17.20;11.50;;;;;;;17.80;88.38;94783.61;1629762;87;21444;-58
2021/06/19 01:51:35;;;;;;;18.80;12.50;;;;;;;17.74;88.67;94776.59;1629551;87;21478;-58
2021/06/19 01:54:02;;;;;;;27.42;13.18;;;;;;;17.70;88.90;94782.23;1630633;87;20987;-57
2021/06/19 01:56:29;;;;;;;27.85;12.18;;;;;;;17.67;89.08;94776.27;1630235;87;21213;-57
2021/06/19 01:58:56;;;;;;;20.12;12.15;;;;;;;17.64;88.98;94784.22;1633894;87;21097;-57
2021/06/19 02:01:22;;;;;;;20.15;11.35;;;;;;;17.58;88.93;94778.59;1635272;87;20982;-57
2021/06/19 02:03:50;;;;;;;21.60;13.58;;;;;;;17.54;89.02;94777.27;1628860;86;21023;-56
2021/06/19 02:06:18;;;;;;;19.27;12.30;;;;;;;17.51;89.28;94779.66;1617756;87;21097;-55
2021/06/19 02:08:59;;;;;;;26.25;12.75;;;;;;;17.47;89.14;94775.69;1629376;87;22309;-57
2021/06/19 02:11:26;;;;;;;19.40;12.95;;;;;;;17.44;89.24;94780.09;1629165;87;21069;-57
2021/06/19 02:13:53;;;;;;;27.93;12.63;;;;;;;17.43;89.42;94777.93;1627824;87;20987;-57
2021/06/19 02:16:20;;;;;;;26.48;12.88;;;;;;;17.42;89.42;94782.61;1631088;87;21549;-57
2021/06/19 02:18:47;;;;;;;25.55;13.70;;;;;;;17.41;89.74;94785.22;1629316;87;21578;-56
2021/06/19 02:21:13;;;;;;;24.27;14.07;;;;;;;17.39;89.86;94781.56;1629069;87;21122;-56
2021/06/19 02:23:40;;;;;;;21.00;13.48;;;;;;;17.36;89.95;94781.77;1632066;86;21074;-57
2021/06/19 02:26:07;;;;;;;20.23;13.28;;;;;;;17.33;90.11;94782.72;1621014;87;21070;-56
2021/06/19 02:28:34;;;;;;;20.68;13.32;;;;;;;17.30;90.27;94783.70;1612246;87;21045;-56
2021/06/19 02:31:00;;;;;;;21.48;13.18;;;;;;;17.28;90.42;94786.21;1626848;87;21086;-56
2021/06/19 02:33:27;;;;;;;25.05;14.23;;;;;;;17.28;90.63;94794.56;1629644;86;21831;-58
2021/06/19 02:35:54;;;;;;;21.27;13.35;;;;;;;17.25;90.77;94791.37;1625952;87;21020;-57
2021/06/19 02:38:21;;;;;;;19.30;12.47;;;;;;;17.19;91.08;94793.30;1611335;87;21498;-57
2021/06/19 02:40:49;;;;;;;18.23;11.90;;;;;;;17.14;91.07;94795.41;1624368;87;21030;-57
2021/06/19 02:43:16;;;;;;;22.45;10.85;;;;;;;17.10;91.31;94792.08;1624085;88;21066;-57
2021/06/19 02:45:43;;;;;;;17.02;10.98;;;;;;;17.08;91.43;94789.77;1623812;88;21138;-57
2021/06/19 02:48:10;;;;;;;20.30;12.25;;;;;;;17.06;91.26;94795.70;1628193;87;21019;-57
2021/06/19 02:50:39;;;;;;;15.80;10.68;;;;;;;17.03;91.33;94793.87;1627195;87;21042;-57
2021/06/19 02:53:06;;;;;;;18.25;11.25;;;;;;;16.98;91.32;94784.84;1624697;88;21073;-56
2021/06/19 02:55:37;;;;;;;22.85;10.68;;;;;;;16.93;91.73;94786.30;1627459;87;20978;-56
2021/06/19 02:58:05;;;;;;;16.30;9.88;;;;;;;16.94;92.40;94789.85;1627522;87;21179;-57
2021/06/19 03:00:32;;;;;;;13.48;10.43;;;;;;;17.01;92.79;94797.15;1624842;87;20963;-57
2021/06/19 03:02:59;;;;;;;11.53;9.55;;;;;;;17.06;92.90;94789.50;1627433;87;21031;-57
2021/06/19 03:05:27;;;;;;;13.88;9.55;;;;;;;17.09;92.65;94793.33;1629730;87;21119;-58
2021/06/19 03:07:54;;;;;;;9.30;7.05;;;;;;;17.06;92.37;94788.11;1628631;87;20979;-56
2021/06/19 03:10:26;;;;;;;9.35;7.33;;;;;;;17.05;92.23;94787.19;1624757;88;21152;-57
2021/06/19 03:12:53;;;;;;;10.60;7.70;;;;;;;17.01;92.06;94786.03;1625692;88;21078;-57
2021/06/19 03:15:19;;;;;;;16.57;11.68;;;;;;;16.99;92.16;94775.25;1628997;86;21557;-57
2021/06/19 03:17:47;;;;;;;15.60;11.75;;;;;;;16.96;91.94;94767.89;1625092;87;21090;-56
2021/06/19 03:20:17;;;;;;;24.75;12.53;;;;;;;16.91;91.72;94771.38;1628367;87;21078;-57
2021/06/19 03:22:56;;;;;;;17.50;11.15;;;;;;;16.85;91.38;94773.31;1626834;87;21138;-55
2021/06/19 03:25:26;;;;;;;21.42;11.75;;;;;;;16.79;91.48;94771.87;1626003;87;21208;-57
2021/06/19 03:27:55;;;;;;;17.87;13.40;;;;;;;16.75;91.78;94764.34;1627552;86;21451;-57
2021/06/19 03:30:22;;;;;;;20.55;13.40;;;;;;;16.75;91.57;94762.20;1627178;87;21006;-57
2021/06/19 03:32:50;;;;;;;18.73;11.68;;;;;;;16.74;91.67;94762.07;1626982;87;21085;-56
2021/06/19 03:35:18;;;;;;;22.15;11.83;;;;;;;16.69;91.49;94769.08;1625251;88;21929;-57
2021/06/19 03:37:45;;;;;;;18.75;12.30;;;;;;;16.69;91.37;94776.66;1626451;87;20983;-57
2021/06/19 03:40:13;;;;;;;20.57;11.35;;;;;;;16.70;91.30;94775.41;1626235;87;21007;-56
2021/06/19 03:42:40;;;;;;;22.42;13.40;;;;;;;16.69;90.94;94767.69;1600685;88;21069;-57
2021/06/19 03:45:08;;;;;;;22.10;11.63;;;;;;;16.70;90.95;94774.02;1595973;89;21132;-57
2021/06/19 03:47:35;;;;;;;15.20;10.03;;;;;;;16.71;90.80;94772.77;1591578;89;21214;-56
2021/06/19 03:50:03;;;;;;;17.50;10.80;;;;;;;16.66;90.81;94764.50;1595642;88;21524;-56
2021/06/19 03:52:30;;;;;;;16.25;10.58;;;;;;;16.66;91.13;94758.16;1599659;89;21248;-56
2021/06/19 03:54:57;;;;;;;15.48;10.80;;;;;;;16.69;91.09;94764.16;1597396;88;21116;-56
2021/06/19 03:57:29;;;;;;;17.20;10.50;;;;;;;16.70;91.11;94753.94;1610026;87;21026;-57
2021/06/19 03:59:56;;;;;;;18.25;10.75;;;;;;;16.71;91.17;94751.94;1633266;86;21157;-57
2021/06/19 04:02:23;;;;;;;19.55;10.35;;;;;;;16.72;91.33;94749.30;1636872;87;20995;-57
2021/06/19 04:04:50;;;;;;;15.80;9.93;;;;;;;16.73;91.38;94755.73;1627477;87;20995;-57
2021/06/19 04:07:19;;;;;;;13.28;9.63;;;;;;;16.72;91.12;94753.46;1636157;87;21537;-57
2021/06/19 04:09:47;;;;;;;16.93;11.45;;;;;;;16.73;91.33;94752.21;1627887;87;21486;-58
2021/06/19 04:12:15;;;;;;;19.70;11.35;;;;;;;16.73;91.33;94746.01;1631907;87;21827;-58
2021/06/19 04:14:42;;;;;;;17.10;10.58;;;;;;;16.74;91.63;94753.09;1626660;87;21454;-57
2021/06/19 04:17:09;;;;;;;13.83;8.45;;;;;;;16.79;91.27;94746.86;1627622;87;21018;-58
2021/06/19 04:19:40;;;;;;;13.22;9.00;;;;;;;16.83;90.96;94748.02;1617204;87;21073;-57
2021/06/19 04:22:07;;;;;;;12.93;9.00;;;;;;;16.84;90.41;94743.38;1635116;87;21125;-58
2021/06/19 04:24:34;;;;;;;13.53;11.33;;;;;;;16.87;90.22;94745.82;1634292;87;21904;-57
2021/06/19 04:27:02;;;;;;;14.23;10.93;;;;;;;16.89;89.98;94750.27;1628836;87;21019;-58
2021/06/19 04:29:30;;;;;;;12.00;9.33;;;;;;;16.91;89.87;94744.34;1634169;87;21062;-58
2021/06/19 04:31:59;;;;;;;10.55;8.75;;;;;;;16.96;89.70;94734.54;1626326;87;21026;-57
2021/06/19 04:34:26;;;;;;;10.13;8.93;;;;;;;16.96;89.08;94737.32;1627108;87;21019;-57
2021/06/19 04:36:53;;;;;;;14.18;11.88;;;;;;;16.92;88.79;94734.00;1629992;87;21142;-57
2021/06/19 04:39:19;;;;;;;13.80;9.03;;;;;;;16.87;88.53;94723.59;1630305;87;20979;-57
2021/06/19 04:41:55;;;;;;;11.45;8.73;;;;;;;16.82;88.63;94735.38;1629112;87;21073;-56
2021/06/19 04:47:06;;;;;;;10.60;7.85;;;;;;;16.81;88.96;94739.41;1587060;88;21004;-57
2021/06/19 04:49:32;;;;;;;13.55;10.10;;;;;;;16.79;88.62;94736.36;1588284;89;21866;-58
2021/06/19 04:52:01;;;;;;;10.70;7.92;;;;;;;16.77;88.87;94727.11;1588157;88;21074;-58
2021/06/19 04:54:28;;;;;;;15.72;13.35;;;;;;;16.75;89.88;94746.92;1582021;88;21498;-57
2021/06/19 04:56:55;;;;;;;15.43;13.05;;;;;;;16.74;90.33;94748.92;1570421;88;21124;-57
2021/06/19 04:59:22;;;;;;;18.02;13.75;;;;;;;16.74;90.61;94728.09;1597603;88;20974;-57
2021/06/19 05:01:49;;;;;;;13.93;12.45;;;;;;;16.78;90.47;94729.28;1578712;89;22007;-58
2021/06/19 05:04:16;;;;;;;12.33;11.12;;;;;;;16.84;90.91;94718.98;1598601;88;20974;-59
2021/06/19 05:06:45;;;;;;;14.68;12.30;;;;;;;16.89;90.72;94717.66;1597943;89;21181;-57
2021/06/19 05:09:12;;;;;;;13.35;11.93;;;;;;;16.95;90.50;94717.73;1596602;90;21014;-57
2021/06/19 05:11:39;;;;;;;12.47;9.63;;;;;;;16.96;90.45;94718.64;1595125;88;21197;-57
2021/06/19 05:14:06;;;;;;;11.73;10.15;;;;;;;17.01;90.83;94711.59;1583589;88;21124;-57
2021/06/19 05:16:33;;;;;;;14.95;13.45;;;;;;;17.03;90.44;94704.30;1608776;88;21121;-57
2021/06/19 05:19:01;;;;;;;14.00;10.10;;;;;;;17.03;90.67;94722.98;1602498;88;21094;-57
2021/06/19 05:21:27;;;;;;;11.25;9.78;;;;;;;17.05;90.76;94726.81;1595860;88;21530;-58
2021/06/19 05:23:55;;;;;;;13.55;11.18;;;;;;;17.07;90.47;94717.36;1580202;88;21186;-56
2021/06/19 05:26:21;;;;;;;11.38;9.85;;;;;;;17.06;90.50;94723.42;1594394;88;21138;-57
2021/06/19 05:28:49;;;;;;;11.08;9.98;;;;;;;17.11;90.48;94729.66;1586025;89;21201;-58
2021/06/19 05:31:16;;;;;;;14.85;11.35;;;;;;;17.18;90.27;94726.44;1599356;88;21527;-56
2021/06/19 05:33:42;;;;;;;11.15;9.15;;;;;;;17.23;90.22;94725.72;1587207;89;22015;-57
2021/06/19 05:36:09;;;;;;;12.13;10.40;;;;;;;17.25;90.32;94721.20;1583966;89;21212;-57
2021/06/19 05:38:36;;;;;;;14.28;8.95;;;;;;;17.28;90.26;94723.00;1584370;88;21225;-58
2021/06/19 05:41:03;;;;;;;9.25;8.35;;;;;;;17.32;90.62;94724.19;1599273;88;21004;-57
2021/06/19 05:43:31;;;;;;;10.45;9.28;;;;;;;17.42;90.49;94723.55;1600499;88;21016;-57
2021/06/19 05:45:58;;;;;;;10.35;9.25;;;;;;;17.57;90.30;94719.25;1586434;88;22687;-58
2021/06/19 05:48:25;;;;;;;11.93;10.72;;;;;;;17.67;89.85;94716.45;1600473;88;20966;-58
2021/06/19 05:50:52;;;;;;;8.55;7.62;;;;;;;17.77;89.73;94724.13;1583271;88;21543;-57
2021/06/19 05:53:19;;;;;;;10.88;8.70;;;;;;;17.92;89.72;94717.02;1586839;88;21013;-57
2021/06/19 05:55:46;;;;;;;10.10;9.08;;;;;;;18.01;89.75;94723.80;1586633;89;21125;-56
2021/06/19 05:58:13;;;;;;;12.65;10.00;;;;;;;18.17;88.97;94719.73;1603263;89;20994;-58
2021/06/19 06:00:40;;;;;;;15.53;11.55;;;;;;;18.28;89.09;94728.20;1572133;89;21061;-57
2021/06/19 06:03:08;;;;;;;11.73;8.75;;;;;;;18.38;88.82;94721.15;1580061;89;21341;-57
2021/06/19 06:05:35;;;;;;;9.43;8.35;;;;;;;18.49;87.73;94726.80;1582481;89;21035;-57
2021/06/19 06:08:03;;;;;;;11.00;9.80;;;;;;;18.62;87.14;94730.66;1591788;88;21488;-58
2021/06/19 06:10:32;;;;;;;12.13;8.93;;;;;;;18.75;86.22;94725.41;1586123;88;21028;-57
2021/06/19 06:12:58;;;;;;;11.48;9.48;;;;;;;18.89;85.34;94727.25;1585219;89;21548;-57
2021/06/19 06:15:27;;;;;;;12.75;9.58;;;;;;;19.03;84.24;94738.81;1561069;88;22292;-57
2021/06/19 06:17:54;;;;;;;8.93;8.03;;;;;;;19.16;83.24;94729.38;1563091;89;20970;-57
2021/06/19 06:20:21;;;;;;;11.35;9.98;;;;;;;19.26;81.67;94718.14;1585733;88;21081;-57
2021/06/19 06:22:49;;;;;;;12.78;11.05;;;;;;;19.35;81.65;94720.69;1571773;89;21015;-59
2021/06/19 06:25:16;;;;;;;11.57;9.65;;;;;;;19.42;81.10;94723.00;1579625;88;21150;-59
2021/06/19 06:27:42;;;;;;;9.75;8.60;;;;;;;19.46;80.89;94724.13;1594663;88;21169;-58
2021/06/19 06:30:13;;;;;;;9.30;8.30;;;;;;;19.53;81.07;94725.78;1620663;87;37347;-59
2021/06/19 06:32:39;;;;;;;13.08;9.28;;;;;;;19.62;80.70;94728.97;1627262;87;21030;-61
2021/06/19 06:35:09;;;;;;;9.73;8.48;;;;;;;19.69;78.76;94722.25;1624574;86;20987;-59
2021/06/19 06:37:38;;;;;;;10.78;8.95;;;;;;;19.73;77.98;94736.72;1623681;88;21184;-58
2021/06/19 06:40:08;;;;;;;9.73;7.92;;;;;;;19.72;77.93;94731.66;1626783;87;21308;-58
2021/06/19 06:42:35;;;;;;;8.33;7.53;;;;;;;19.71;78.18;94729.48;1623872;87;20967;-57
2021/06/19 06:45:04;;;;;;;9.43;8.33;;;;;;;19.71;77.84;94721.11;1625409;87;21112;-59
2021/06/19 06:47:31;;;;;;;10.82;9.70;;;;;;;19.72;77.92;94735.20;1606547;88;20999;-57
2021/06/19 06:49:57;;;;;;;9.53;8.58;;;;;;;19.71;78.14;94732.28;1628795;87;21573;-60
2021/06/19 06:52:24;;;;;;;11.78;8.33;;;;;;;19.76;78.87;94734.95;1625174;87;21143;-58
2021/06/19 06:54:51;;;;;;;7.60;6.90;;;;;;;19.79;78.41;94726.95;1608505;88;21533;-58
2021/06/19 06:57:18;;;;;;;10.93;8.43;;;;;;;19.88;78.33;94736.47;1631374;87;21633;-58
2021/06/19 06:59:45;;;;;;;11.75;8.60;;;;;;;19.99;77.96;94728.09;1625878;87;20999;-60
2021/06/19 07:02:12;;;;;;;9.73;7.65;;;;;;;20.11;77.33;94717.09;1626917;87;21125;-58
2021/06/19 07:04:39;;;;;;;7.67;6.92;;;;;;;20.20;76.93;94732.95;1600641;88;21178;-58
2021/06/19 07:07:05;;;;;;;7.37;6.62;;;;;;;20.28;76.31;94721.37;1601191;88;20982;-59
2021/06/19 07:09:32;;;;;;;6.50;5.90;;;;;;;20.35;75.81;94725.06;1594742;89;20974;-57
2021/06/19 07:11:59;;;;;;;7.70;6.20;;;;;;;20.40;74.91;94729.88;1589161;89;21079;-58
2021/06/19 07:14:26;;;;;;;8.35;7.00;;;;;;;20.42;74.46;94731.52;1588074;89;21027;-59
2021/06/19 07:16:55;;;;;;;7.05;5.97;;;;;;;20.47;74.59;94733.53;1577916;88;20965;-58
2021/06/19 07:19:22;;;;;;;6.78;5.10;;;;;;;20.61;73.96;94724.88;1573852;90;21030;-58
2021/06/19 07:21:48;;;;;;;6.97;6.00;;;;;;;20.78;73.68;94721.36;1583668;90;21039;-58
2021/06/19 07:24:16;;;;;;;6.95;6.08;;;;;;;20.94;73.56;94724.77;1628877;87;20999;-58
2021/06/19 07:26:42;;;;;;;13.43;5.35;;;;;;;21.02;72.61;94726.39;1626802;87;20976;-60
2021/06/19 07:29:09;;;;;;;8.03;4.85;;;;;;;21.03;71.01;94708.33;1625109;88;21138;-60
2021/06/19 07:31:36;;;;;;;4.90;4.40;;;;;;;21.06;71.80;94721.28;1631070;86;20995;-58
2021/06/19 07:34:04;;;;;;;4.78;4.37;;;;;;;21.14;70.22;94713.23;1629248;87;21058;-60
2021/06/19 07:36:31;;;;;;;18.48;5.45;;;;;;;21.19;70.50;94734.85;1624523;87;21649;-60
2021/06/19 07:38:57;;;;;;;7.28;4.55;;;;;;;21.16;70.50;94719.10;1624701;88;21066;-58
2021/06/19 07:41:24;;;;;;;7.55;5.50;;;;;;;21.15;70.77;94725.20;1629149;87;21482;-59
2021/06/19 07:43:53;;;;;;;4.53;4.05;;;;;;;21.07;71.73;94731.23;1627008;87;21438;-58
2021/06/19 07:46:21;;;;;;;5.97;4.87;;;;;;;20.92;71.82;94718.19;1626472;86;21026;-57
2021/06/19 07:48:48;;;;;;;6.30;4.90;;;;;;;20.71;72.42;94723.95;1625159;88;21015;-58
2021/06/19 07:51:14;;;;;;;7.65;5.72;;;;;;;20.50;72.37;94724.89;1625506;88;20986;-58
2021/06/19 07:53:42;;;;;;;4.70;4.30;;;;;;;20.37;73.70;94733.04;1630419;87;21835;-59
2021/06/19 07:56:09;;;;;;;4.83;4.37;;;;;;;20.25;74.93;94734.34;1623784;88;21173;-59
2021/06/19 07:58:36;;;;;;;7.22;5.65;;;;;;;20.13;75.33;94733.45;1627468;87;21731;-58
2021/06/19 08:01:03;;;;;;;8.08;6.08;;;;;;;19.97;75.92;94743.98;1627448;87;20979;-58
2021/06/19 08:03:29;;;;;;;8.08;6.12;;;;;;;19.83;76.21;94739.41;1628540;86;21170;-59
2021/06/19 08:05:57;;;;;;;6.42;5.17;;;;;;;19.74;77.26;94742.43;1625535;87;21893;-58
2021/06/19 08:08:23;;;;;;;4.70;4.30;;;;;;;19.64;77.71;94738.38;1624824;87;21011;-59
2021/06/19 08:10:53;;;;;;;6.05;4.90;;;;;;;19.60;78.27;94737.84;1625205;87;20994;-59
2021/06/19 08:13:20;;;;;;;8.10;5.87;;;;;;;19.56;78.19;94748.50;1609574;87;21026;-59
2021/06/19 08:15:46;;;;;;;9.78;5.92;;;;;;;19.51;78.98;94761.81;1625419;87;21042;-59
2021/06/19 08:18:14;;;;;;;13.45;6.00;;;;;;;19.43;80.57;94762.19;1626593;87;21133;-58
2021/06/19 08:20:41;;;;;;;8.28;5.15;;;;;;;19.30;82.00;94765.30;1628051;87;21537;-57
2021/06/19 08:23:07;;;;;;;5.17;4.67;;;;;;;19.16;83.57;94759.29;1626659;87;21093;-57
2021/06/19 08:25:35;;;;;;;4.90;4.20;;;;;;;19.03;84.24;94759.72;1624662;88;21424;-58
2021/06/19 08:28:02;;;;;;;6.10;5.25;;;;;;;18.97;85.45;94761.73;1630547;87;21459;-58
2021/06/19 08:30:29;;;;;;;6.25;3.75;;;;;;;19.06;86.04;94760.77;1625128;88;21151;-57
2021/06/19 08:32:56;;;;;;;5.47;4.95;;;;;;;19.21;87.14;94753.73;1596108;88;21140;-58
2021/06/19 08:35:23;;;;;;;7.67;5.10;;;;;;;19.48;87.43;94753.06;1620510;87;20978;-58
2021/06/19 08:37:50;;;;;;;4.83;4.42;;;;;;;19.82;87.73;94756.03;1623749;87;21191;-58
2021/06/19 08:40:17;;;;;;;4.22;3.83;;;;;;;20.21;87.15;94756.82;1622104;87;20987;-57
2021/06/19 08:42:43;;;;;;;5.40;4.35;;;;;;;20.56;85.59;94755.64;1624736;88;21156;-57
2021/06/19 08:45:10;;;;;;;8.08;4.97;;;;;;;20.83;83.11;94754.20;1626630;86;21078;-56
2021/06/19 08:47:37;;;;;;;6.47;5.08;;;;;;;20.98;81.19;94757.45;1627970;87;21062;-58
2021/06/19 08:50:12;;;;;;;4.25;3.85;;;;;;;21.14;79.98;94760.05;1626463;87;20971;-59
2021/06/19 08:52:39;;;;;;;5.35;4.87;;;;;;;21.35;80.46;94759.83;1624411;88;21076;-56
2021/06/19 08:55:10;;;;;;;5.00;4.50;;;;;;;21.53;78.83;94760.00;1630334;87;21151;-57
2021/06/19 08:57:37;;;;;;;5.22;4.80;;;;;;;21.69;77.45;94768.20;1634592;87;20986;-58
2021/06/19 09:00:06;;;;;;;9.35;5.40;;;;;;;21.78;75.81;94755.27;1625434;88;20987;-58
2021/06/19 09:02:33;;;;;;;6.37;5.12;;;;;;;21.82;74.65;94761.38;1625513;88;21038;-57
2021/06/19 09:05:09;;;;;;;5.83;4.72;;;;;;;21.86;73.91;94757.65;1624549;88;21031;-58
2021/06/19 09:07:45;;;;;;;5.65;5.15;;;;;;;22.06;76.02;94765.77;1625069;87;21161;-59
2021/06/19 09:10:33;;;;;;;5.92;5.20;;;;;;;22.39;75.28;94772.53;1624326;88;21609;-59
2021/06/19 09:13:10;;;;;;;5.67;5.17;;;;;;;22.72;72.84;94761.02;1629289;87;21027;-58
2021/06/19 09:15:48;;;;;;;4.85;4.45;;;;;;;23.03;72.38;94767.41;1632350;87;21045;-57
2021/06/19 09:18:27;;;;;;;7.33;4.80;;;;;;;23.26;70.99;94758.13;1628611;87;21030;-57
2021/06/19 09:21:03;;;;;;;8.08;5.08;;;;;;;23.44;67.58;94749.73;1627406;87;21521;-57
2021/06/19 09:23:37;;;;;;;8.18;4.95;;;;;;;23.62;69.25;94756.63;1625403;87;21563;-59
2021/06/19 09:26:14;;;;;;;5.12;4.62;;;;;;;23.75;69.43;94760.27;1626496;87;21063;-60
2021/06/19 09:29:10;;;;;;;5.95;5.05;;;;;;;23.91;68.49;94752.27;1628857;87;21053;-59
2021/06/19 09:31:51;;;;;;;5.30;4.85;;;;;;;24.04;66.13;94746.71;1599787;87;21033;-59
2021/06/19 09:34:22;;;;;;;6.90;5.97;;;;;;;24.13;64.69;94747.70;1623660;87;21377;-58
2021/06/19 09:37:04;;;;;;;9.03;5.65;;;;;;;24.05;63.74;94747.56;1628447;87;21018;-58
2021/06/19 09:39:32;;;;;;;8.35;5.50;;;;;;;23.99;63.38;94739.12;1628409;86;21681;-58
2021/06/19 09:42:01;;;;;;;6.58;4.90;;;;;;;23.98;62.98;94737.59;1610917;87;21196;-59
2021/06/19 09:44:43;;;;;;;6.92;4.65;;;;;;;24.03;63.67;94732.55;1610572;87;21581;-58
2021/06/19 09:47:12;;;;;;;6.05;4.75;;;;;;;24.05;63.55;94732.77;1627872;87;21832;-59
2021/06/19 09:49:42;;;;;;;8.15;5.00;;;;;;;24.12;62.36;94724.47;1626594;87;21034;-58
2021/06/19 09:52:10;;;;;;;5.55;5.03;;;;;;;24.15;61.72;94732.45;1627977;87;21506;-58
2021/06/19 09:54:42;;;;;;;5.87;4.62;;;;;;;24.14;61.67;94742.97;1624951;87;21042;-57
2021/06/19 09:57:18;;;;;;;5.83;4.95;;;;;;;24.08;62.00;94732.46;1588070;87;21212;-59
2021/06/19 09:59:45;;;;;;;7.15;5.80;;;;;;;23.94;62.22;94725.90;1622619;87;21167;-59
2021/06/19 10:02:30;;;;;;;11.95;5.62;;;;;;;23.75;62.08;94723.73;1623250;88;20987;-59
2021/06/19 10:04:58;;;;;;;6.95;5.75;;;;;;;23.56;63.05;94730.02;1628275;87;21095;-58
2021/06/19 10:07:28;;;;;;;5.97;5.40;;;;;;;23.37;62.63;94727.84;1627452;87;21100;-59
2021/06/19 10:09:57;;;;;;;11.50;6.03;;;;;;;23.25;63.39;94720.88;1627194;87;21419;-57
2021/06/19 10:12:30;;;;;;;9.50;6.17;;;;;;;23.09;63.62;94724.63;1626142;87;21144;-58
2021/06/19 10:15:07;;;;;;;5.95;4.80;;;;;;;22.91;63.35;94729.55;1627304;87;21058;-59
2021/06/19 10:17:43;;;;;;;5.58;5.08;;;;;;;22.70;63.36;94720.73;1626754;87;21102;-58
2021/06/19 10:20:12;;;;;;;6.67;6.05;;;;;;;22.55;64.21;94720.38;1592522;88;21100;-59
2021/06/19 10:22:41;;;;;;;7.20;5.87;;;;;;;22.51;64.21;94719.91;1596502;88;20998;-58
2021/06/19 10:25:10;;;;;;;6.20;5.50;;;;;;;22.72;66.19;94718.94;1579673;89;21166;-58
2021/06/19 10:27:47;;;;;;;6.00;5.35;;;;;;;23.10;66.40;94714.91;1608615;89;21116;-58
2021/06/19 10:30:15;;;;;;;5.78;5.22;;;;;;;23.58;65.11;94716.85;1587191;90;21023;-58
2021/06/19 10:32:48;;;;;;;5.90;5.33;;;;;;;24.03;64.42;94712.87;1583985;90;21060;-59
2021/06/19 10:35:22;;;;;;;4.70;4.30;;;;;;;24.30;62.34;94717.26;1583824;90;21007;-58
2021/06/19 10:37:51;;;;;;;5.83;4.78;;;;;;;24.34;60.69;94706.45;1585027;88;21163;-58
2021/06/19 10:40:26;;;;;;;6.42;5.22;;;;;;;24.26;60.19;94712.61;1583693;90;21139;-58
2021/06/19 10:42:56;;;;;;;9.45;5.10;;;;;;;24.40;61.73;94700.84;1583907;90;21059;-59
2021/06/19 10:45:26;;;;;;;6.25;4.55;;;;;;;24.70;61.37;94706.20;1627181;87;21116;-57
2021/06/19 10:48:08;;;;;;;5.78;4.87;;;;;;;24.78;58.56;94706.42;1633055;87;20970;-61
2021/06/19 10:50:37;;;;;;;6.42;5.05;;;;;;;24.71;57.41;94697.23;1626748;88;21690;-58
2021/06/19 10:53:19;;;;;;;4.80;4.30;;;;;;;24.43;56.81;94703.23;1627416;87;21027;-57
2021/06/19 10:55:57;;;;;;;5.17;4.53;;;;;;;24.19;57.92;94704.81;1632118;87;21030;-58
2021/06/19 10:58:33;;;;;;;16.82;7.58;;;;;;;23.98;58.69;94706.66;1629248;87;21038;-58
2021/06/19 11:01:04;;;;;;;6.50;5.40;;;;;;;23.83;59.20;94712.67;1627343;87;21581;-60
2021/06/19 11:03:51;;;;;;;7.62;5.53;;;;;;;23.71;60.31;94719.08;1626119;87;21169;-59
2021/06/19 11:06:30;;;;;;;6.72;5.72;;;;;;;23.58;61.08;94711.98;1625556;88;21692;-58
2021/06/19 11:09:15;;;;;;;6.70;5.62;;;;;;;23.33;61.72;94711.95;1627632;87;21058;-59
2021/06/19 11:12:02;;;;;;;9.35;6.10;;;;;;;23.09;63.33;94707.78;1630955;87;21122;-58
2021/06/19 11:14:51;;;;;;;7.72;5.72;;;;;;;22.91;65.24;94710.55;1630567;87;20946;-59
2021/06/19 11:17:34;;;;;;;7.45;5.55;;;;;;;22.84;67.15;94716.09;1631290;87;21169;-57
2021/06/19 11:20:05;;;;;;;6.22;5.42;;;;;;;22.94;68.40;94721.48;1633232;87;21533;-58
2021/06/19 11:22:44;;;;;;;5.80;5.30;;;;;;;23.09;68.27;94722.45;1614281;87;21526;-58
2021/06/19 11:25:23;;;;;;;5.70;5.20;;;;;;;23.71;67.60;94723.29;1586900;88;21054;-59
2021/06/19 11:28:01;;;;;;;6.72;5.30;;;;;;;24.46;67.55;94717.63;1630571;87;21066;-59
2021/06/19 11:30:42;;;;;;;5.20;4.30;;;;;;;25.33;63.81;94721.50;1632004;87;21149;-58
2021/06/19 11:33:27;;;;;;;4.47;3.92;;;;;;;26.16;61.30;94713.45;1615068;87;21069;-59
2021/06/19 11:36:05;;;;;;;4.15;3.75;;;;;;;26.84;57.72;94713.40;1634047;87;21455;-58
2021/06/19 11:38:50;;;;;;;8.15;4.28;;;;;;;27.39;53.32;94709.72;1632586;87;20986;-58